Terminal Aerodrome Forecast
Issued by NWS

Home | Current Version | Previous Version | Text Only | Print | Product List | Glossary On
Versions: 1 2 3 4 5 6 7 8 9 10 11 12 13
878
FTUS44 KLZK 131739
TAFBPK
TAF
KBPK 131739Z 1318/1418 12007KT P6SM SCT100 SCT250
     FM140500 13008KT P6SM SCT020 BKN060 PROB30 1408/1414 -FZRA
      BKN020
     FM141400 14007KT P6SM SCT012 OVC020
      TEMPO 1414/1418 -FZRA BKN012=

USA.gov is the U.S. government's official web portal to all federal, state and local government web resources and services.